Time;durP1;ratioP1;P1;durP2;ratioP2;P2;SDS_P1;SDS_P2;PMS_P1;PMS_P2;Temp;Humidity;BMP_temperature;BMP_pressure;BME280_temperature;BME280_humidity;BME280_pressure;Samples;Min_cycle;Max_cycle;Signal;HPM_P1;HPM_P2
2022/10/22 03:41:00;;;;;;;27.65;13.30;;;14.40;99.90;;;;;;5282483;23;20270;-83
2022/10/22 03:43:27;;;;;;;29.08;14.82;;;14.40;99.90;;;;;;4902207;29;20044;-81
2022/10/22 03:45:53;;;;;;;25.65;14.00;;;14.40;99.90;;;;;;4910843;29;20059;-80
2022/10/22 03:48:20;;;;;;;23.55;14.30;;;14.30;99.90;;;;;;4911030;29;20136;-80
2022/10/22 03:50:47;;;;;;;30.48;15.68;;;14.30;99.90;;;;;;4903226;29;20060;-78
2022/10/22 03:53:14;;;;;;;28.55;14.60;;;14.30;99.90;;;;;;4912863;29;20044;-78
2022/10/22 03:55:40;;;;;;;28.30;15.98;;;14.30;99.90;;;;;;4899859;29;20537;-78
2022/10/22 03:58:07;;;;;;;24.85;14.93;;;14.20;99.90;;;;;;4904018;29;20057;-78
2022/10/22 04:00:34;;;;;;;29.38;15.32;;;14.20;99.90;;;;;;4904519;29;20517;-78
2022/10/22 04:03:01;;;;;;;27.00;14.43;;;14.20;99.90;;;;;;4914511;29;20060;-78
2022/10/22 04:05:28;;;;;;;27.90;15.10;;;14.20;99.90;;;;;;4909261;29;20057;-78
2022/10/22 04:07:54;;;;;;;28.00;14.88;;;14.10;99.90;;;;;;4903534;29;20107;-78
2022/10/22 04:10:21;;;;;;;32.58;15.80;;;14.10;99.90;;;;;;4908974;29;20473;-78
2022/10/22 04:12:48;;;;;;;29.48;15.70;;;14.20;99.90;;;;;;4912464;29;20494;-79
2022/10/22 04:15:15;;;;;;;34.17;16.33;;;14.10;99.90;;;;;;4906149;29;20049;-79
2022/10/22 04:17:42;;;;;;;24.40;13.63;;;14.10;99.90;;;;;;4898704;29;20055;-78
2022/10/22 04:20:09;;;;;;;24.63;13.40;;;14.10;99.90;;;;;;4916271;29;20056;-78
2022/10/22 04:22:36;;;;;;;26.80;14.43;;;14.10;99.90;;;;;;4910509;29;20063;-78
2022/10/22 04:25:04;;;;;;;21.77;12.80;;;14.10;99.90;;;;;;4904272;29;20052;-79
2022/10/22 04:27:33;;;;;;;27.98;14.13;;;14.10;99.90;;;;;;4906769;29;20052;-79
2022/10/22 04:29:59;;;;;;;23.90;13.00;;;14.10;99.90;;;;;;4906250;29;20049;-78
2022/10/22 04:32:26;;;;;;;21.77;13.40;;;14.10;99.90;;;;;;4907817;29;20049;-79
2022/10/22 04:34:53;;;;;;;24.92;13.75;;;14.10;99.90;;;;;;4902667;29;20059;-78
2022/10/22 04:37:20;;;;;;;24.40;12.90;;;14.10;99.90;;;;;;4912455;29;20048;-78
2022/10/22 04:39:47;;;;;;;22.95;12.50;;;14.10;99.90;;;;;;4911626;29;20063;-78
2022/10/22 04:42:13;;;;;;;22.52;12.60;;;14.10;99.90;;;;;;4906911;29;20063;-78
2022/10/22 04:44:40;;;;;;;22.95;13.15;;;14.10;99.90;;;;;;4897009;29;20048;-79
2022/10/22 04:47:07;;;;;;;28.40;13.20;;;14.10;99.90;;;;;;4906317;29;20533;-80
2022/10/22 04:49:33;;;;;;;30.65;15.25;;;14.10;99.90;;;;;;4902625;29;20048;-78
2022/10/22 04:52:00;;;;;;;28.70;14.38;;;14.10;99.90;;;;;;4901828;29;20403;-80
2022/10/22 04:54:27;;;;;;;25.63;13.30;;;14.10;99.90;;;;;;4908635;29;20051;-78
2022/10/22 04:56:58;;;;;;;23.45;12.18;;;14.10;99.90;;;;;;4904163;29;20044;-79
2022/10/22 04:59:25;;;;;;;25.20;13.23;;;14.10;99.90;;;;;;4902859;29;20072;-80
2022/10/22 05:01:52;;;;;;;21.08;12.60;;;14.10;99.90;;;;;;4901009;29;20068;-80
2022/10/22 05:04:18;;;;;;;23.15;13.27;;;14.10;99.90;;;;;;4912063;29;20060;-80
2022/10/22 05:06:45;;;;;;;21.35;13.43;;;14.10;99.90;;;;;;4905899;29;20048;-78
2022/10/22 05:09:15;;;;;;;23.58;13.80;;;14.10;99.90;;;;;;4895759;29;20053;-79
2022/10/22 05:11:45;;;;;;;29.10;13.60;;;14.00;99.90;;;;;;4901199;29;20101;-80
2022/10/22 05:14:12;;;;;;;25.65;13.75;;;14.10;99.90;;;;;;4906892;29;20135;-80
2022/10/22 05:16:38;;;;;;;21.63;11.85;;;14.10;99.90;;;;;;4904057;29;20051;-80
2022/10/22 05:19:06;;;;;;;19.42;11.88;;;14.00;99.90;;;;;;4898826;29;20065;-77
2022/10/22 05:21:33;;;;;;;28.63;12.88;;;14.00;99.90;;;;;;4903286;29;20418;-83
2022/10/22 05:24:00;;;;;;;20.63;11.48;;;14.00;99.90;;;;;;4903099;29;20056;-82
2022/10/22 05:26:28;;;;;;;19.70;11.68;;;14.00;99.90;;;;;;4899507;29;20059;-78
2022/10/22 05:28:54;;;;;;;21.98;11.52;;;14.00;99.90;;;;;;4907011;29;20058;-82
2022/10/22 05:31:21;;;;;;;22.70;11.98;;;14.00;99.90;;;;;;4913972;29;20139;-83
2022/10/22 05:33:48;;;;;;;22.15;12.52;;;14.00;99.90;;;;;;4908877;29;20053;-78
2022/10/22 05:36:18;;;;;;;25.63;14.60;;;14.00;99.90;;;;;;4903859;29;20059;-79
2022/10/22 05:38:45;;;;;;;22.65;13.10;;;14.00;99.90;;;;;;4913873;29;20418;-81
2022/10/22 05:41:21;;;;;;;26.60;14.18;;;14.00;99.90;;;;;;4907913;29;20048;-84
2022/10/22 05:43:48;;;;;;;24.42;14.02;;;13.90;99.90;;;;;;4903380;29;20060;-81
2022/10/22 05:46:19;;;;;;;21.27;11.25;;;13.90;99.90;;;;;;4900917;29;20139;-81
2022/10/22 05:48:57;;;;;;;22.48;11.45;;;13.90;99.90;;;;;;4913325;29;20569;-82
2022/10/22 05:51:26;;;;;;;21.92;11.73;;;13.90;99.90;;;;;;4905030;29;20049;-83
2022/10/22 05:53:56;;;;;;;22.98;11.38;;;13.90;99.90;;;;;;4900029;29;20056;-81
2022/10/22 05:56:23;;;;;;;25.33;11.38;;;13.90;99.90;;;;;;4916815;29;20052;-81
2022/10/22 05:58:50;;;;;;;26.90;11.93;;;13.90;99.90;;;;;;4908504;29;20062;-82
2022/10/22 06:01:20;;;;;;;21.60;10.02;;;13.90;99.90;;;;;;4901138;29;20060;-82
2022/10/22 06:03:47;;;;;;;21.85;10.68;;;13.80;99.90;;;;;;4898495;29;20061;-81
2022/10/22 06:06:20;;;;;;;25.30;11.38;;;13.80;99.90;;;;;;4913615;29;20052;-81
2022/10/22 06:08:49;;;;;;;20.23;10.15;;;13.80;99.90;;;;;;4906813;29;20538;-81
2022/10/22 06:11:17;;;;;;;19.52;10.00;;;13.80;99.90;;;;;;4903713;29;20052;-81
2022/10/22 06:13:45;;;;;;;17.15;8.75;;;13.80;99.90;;;;;;4909696;29;20525;-82
2022/10/22 06:16:12;;;;;;;18.60;10.00;;;13.80;99.90;;;;;;4910332;29;20045;-81
2022/10/22 06:18:39;;;;;;;14.90;8.98;;;13.70;99.90;;;;;;4907585;29;20047;-81
2022/10/22 06:21:08;;;;;;;18.35;10.18;;;13.60;99.90;;;;;;4902425;29;20060;-80
2022/10/22 06:23:36;;;;;;;19.67;8.55;;;13.60;99.90;;;;;;4902806;29;20800;-80
2022/10/22 06:26:04;;;;;;;18.23;9.07;;;13.60;99.90;;;;;;4908533;29;20074;-82
2022/10/22 06:28:31;;;;;;;21.00;9.32;;;13.60;99.90;;;;;;4900469;29;20057;-80
2022/10/22 06:30:59;;;;;;;17.08;8.68;;;13.60;99.90;;;;;;4904483;29;20542;-80
2022/10/22 06:33:27;;;;;;;12.73;7.40;;;13.60;99.90;;;;;;4915887;29;20059;-81
2022/10/22 06:35:54;;;;;;;13.35;7.15;;;13.60;99.90;;;;;;4907629;29;20044;-80
2022/10/22 06:38:20;;;;;;;18.60;8.65;;;13.60;99.90;;;;;;4898700;29;20065;-79
2022/10/22 06:40:47;;;;;;;14.10;6.90;;;13.60;99.90;;;;;;4914653;29;20063;-82
2022/10/22 06:43:14;;;;;;;16.73;8.13;;;13.60;99.90;;;;;;4916193;29;20052;-81
2022/10/22 06:45:41;;;;;;;17.30;6.75;;;13.50;99.90;;;;;;4902505;29;20056;-83
2022/10/22 06:48:08;;;;;;;18.63;7.43;;;13.50;99.90;;;;;;4909558;29;20070;-81
2022/10/22 06:50:35;;;;;;;16.58;7.80;;;13.50;99.90;;;;;;4917426;29;20099;-82
2022/10/22 06:53:02;;;;;;;15.80;7.35;;;13.40;99.90;;;;;;4912389;29;20049;-82
2022/10/22 06:55:28;;;;;;;10.38;6.00;;;13.50;99.90;;;;;;4907101;29;20063;-79
2022/10/22 06:57:55;;;;;;;12.07;6.15;;;13.50;99.90;;;;;;4906355;29;20060;-81
2022/10/22 07:00:22;;;;;;;12.95;5.20;;;13.50;99.90;;;;;;4896698;29;20530;-83
2022/10/22 07:02:51;;;;;;;8.20;4.75;;;13.40;99.90;;;;;;4910621;29;20059;-83
2022/10/22 07:05:24;;;;;;;14.95;5.22;;;13.40;99.90;;;;;;4909184;29;20057;-82
2022/10/22 07:07:51;;;;;;;12.75;5.07;;;13.50;99.90;;;;;;4920541;29;20059;-81
2022/10/22 07:10:17;;;;;;;11.25;4.68;;;13.50;99.90;;;;;;4916708;29;20052;-83
2022/10/22 07:12:44;;;;;;;10.00;4.60;;;13.50;99.90;;;;;;4916543;29;20421;-80
2022/10/22 07:15:11;;;;;;;6.57;5.05;;;13.50;99.90;;;;;;4919084;29;20070;-85
2022/10/22 07:17:38;;;;;;;14.80;6.55;;;13.50;99.90;;;;;;4924976;29;20117;-82
2022/10/22 07:20:06;;;;;;;8.13;5.53;;;13.60;99.90;;;;;;4920317;29;20068;-84
2022/10/22 07:22:32;;;;;;;8.15;5.07;;;13.60;99.90;;;;;;4902063;29;20049;-82
2022/10/22 07:24:59;;;;;;;7.60;5.63;;;13.70;99.90;;;;;;4922572;29;20056;-83
2022/10/22 07:27:33;;;;;;;9.60;4.97;;;13.70;99.90;;;;;;4921296;29;20061;-83
2022/10/22 07:30:00;;;;;;;10.60;5.03;;;13.70;99.90;;;;;;4912886;29;20056;-81
2022/10/22 07:32:27;;;;;;;11.88;6.93;;;13.70;99.90;;;;;;4918248;29;20050;-83
2022/10/22 07:34:53;;;;;;;9.32;5.03;;;13.70;99.90;;;;;;4922917;29;20514;-81
2022/10/22 07:37:20;;;;;;;15.23;9.90;;;13.70;99.90;;;;;;4911137;29;20055;-84
2022/10/22 07:39:48;;;;;;;12.43;7.32;;;13.70;99.90;;;;;;4907565;29;20418;-83
2022/10/22 07:42:15;;;;;;;10.98;6.80;;;13.70;99.90;;;;;;4915543;29;21002;-86
2022/10/22 07:44:42;;;;;;;11.02;5.70;;;13.70;99.90;;;;;;4901991;29;20053;-82
2022/10/22 07:47:08;;;;;;;13.15;6.45;;;13.70;99.90;;;;;;4897763;29;20052;-83
2022/10/22 07:49:35;;;;;;;9.32;6.85;;;13.80;99.90;;;;;;4910111;29;20056;-83
2022/10/22 07:52:02;;;;;;;15.35;8.40;;;13.80;99.90;;;;;;4925355;29;20052;-84
2022/10/22 07:54:28;;;;;;;14.38;6.45;;;13.80;99.90;;;;;;4920503;29;20050;-80
2022/10/22 07:56:55;;;;;;;11.63;8.30;;;13.80;99.90;;;;;;4915694;29;20152;-84
2022/10/22 07:59:22;;;;;;;11.15;6.80;;;13.80;99.90;;;;;;4919503;29;20477;-80
2022/10/22 08:01:48;;;;;;;12.82;7.90;;;13.80;99.90;;;;;;4924273;29;20056;-83
2022/10/22 08:04:15;;;;;;;12.98;6.47;;;13.90;99.90;;;;;;4917748;29;20590;-81
2022/10/22 08:06:42;;;;;;;11.55;5.80;;;13.90;99.90;;;;;;4913950;29;20055;-82
2022/10/22 08:09:12;;;;;;;13.57;5.50;;;13.90;99.90;;;;;;4922223;29;20075;-80
2022/10/22 08:11:39;;;;;;;9.63;5.38;;;13.90;99.90;;;;;;4913939;29;20060;-83
2022/10/22 08:14:06;;;;;;;8.10;4.40;;;13.90;99.90;;;;;;4908132;29;20044;-85
2022/10/22 08:16:33;;;;;;;12.70;6.18;;;14.10;99.90;;;;;;4887321;29;20052;-82
2022/10/22 08:18:59;;;;;;;8.38;6.40;;;14.00;99.90;;;;;;4898239;29;20055;-82
2022/10/22 08:21:26;;;;;;;8.85;6.10;;;14.10;99.90;;;;;;4893132;29;20053;-83
2022/10/22 08:23:53;;;;;;;12.52;7.85;;;14.10;99.90;;;;;;4905099;29;20071;-83
2022/10/22 08:26:20;;;;;;;7.65;4.72;;;14.10;99.90;;;;;;4912801;29;20076;-84
2022/10/22 08:28:46;;;;;;;4.72;2.50;;;14.20;99.90;;;;;;4915179;29;20048;-84
2022/10/22 08:31:13;;;;;;;6.10;2.20;;;14.30;99.90;;;;;;4909228;29;20053;-84
2022/10/22 08:33:40;;;;;;;5.10;1.88;;;14.30;99.90;;;;;;4906395;29;20392;-84
2022/10/22 08:36:08;;;;;;;3.78;2.13;;;14.40;99.90;;;;;;4918965;29;20055;-85
2022/10/22 08:38:34;;;;;;;4.53;3.45;;;14.40;99.90;;;;;;4912596;29;20052;-83
2022/10/22 08:41:20;;;;;;;9.80;2.65;;;14.40;99.90;;;;;;4908074;29;20458;-84
2022/10/22 08:43:58;;;;;;;9.48;2.67;;;14.50;99.90;;;;;;4910245;29;20406;-81
2022/10/22 08:46:52;;;;;;;5.63;2.17;;;14.60;99.90;;;;;;4909371;29;20418;-81
2022/10/22 08:49:28;;;;;;;7.97;1.85;;;14.60;99.90;;;;;;4919841;29;20156;-81
2022/10/22 08:51:57;;;;;;;9.82;2.00;;;14.70;99.90;;;;;;4908875;29;20048;-81
2022/10/22 08:54:36;;;;;;;5.63;1.95;;;14.80;99.90;;;;;;4910548;29;20048;-83
2022/10/22 08:57:15;;;;;;;3.38;1.55;;;14.80;99.90;;;;;;4922280;29;20064;-80
2022/10/22 08:59:58;;;;;;;5.43;1.42;;;14.90;99.90;;;;;;4901354;29;20049;-82
2022/10/22 09:03:17;;;;;;;2.58;1.00;;;14.90;99.90;;;;;;4909390;29;20049;-82
2022/10/22 09:06:06;;;;;;;4.22;1.20;;;15.00;99.90;;;;;;4817174;29;20050;-84
2022/10/22 09:08:34;;;;;;;9.90;1.50;;;15.10;99.90;;;;;;4831180;29;20054;-81
2022/10/22 09:11:11;;;;;;;7.05;1.38;;;15.20;99.90;;;;;;4889604;29;20139;-84
2022/10/22 09:13:41;;;;;;;6.45;1.17;;;15.20;99.90;;;;;;4912031;29;20062;-83
2022/10/22 09:16:15;;;;;;;5.32;1.50;;;15.30;99.90;;;;;;4907008;29;20063;-82
2022/10/22 09:18:58;;;;;;;3.05;1.13;;;15.30;99.90;;;;;;4910623;29;20548;-83
2022/10/22 09:21:27;;;;;;;5.70;1.30;;;15.40;99.90;;;;;;4912076;29;20060;-80
2022/10/22 09:24:03;;;;;;;5.03;1.67;;;15.40;99.90;;;;;;4906352;29;20045;-84
2022/10/22 09:26:35;;;;;;;1.58;0.93;;;15.60;99.90;;;;;;4901655;29;20544;-82
2022/10/22 09:29:01;;;;;;;3.03;1.20;;;15.60;99.90;;;;;;4911206;29;20056;-82
2022/10/22 09:31:30;;;;;;;5.43;1.48;;;15.60;99.90;;;;;;4909218;29;20049;-83
2022/10/22 09:34:00;;;;;;;3.72;1.40;;;15.70;99.90;;;;;;4904782;29;20083;-82
2022/10/22 09:36:28;;;;;;;3.30;1.80;;;15.70;99.90;;;;;;4909311;29;20489;-80
2022/10/22 09:38:54;;;;;;;1.98;1.20;;;15.80;99.90;;;;;;4913618;29;20059;-78
2022/10/22 09:41:28;;;;;;;1.65;0.82;;;15.80;99.90;;;;;;4906255;29;20057;-81
2022/10/22 09:43:55;;;;;;;2.67;1.13;;;15.90;99.90;;;;;;4903087;29;20506;-82
2022/10/22 09:46:26;;;;;;;2.38;1.13;;;15.90;99.90;;;;;;4915347;29;20063;-80
2022/10/22 09:49:05;;;;;;;4.70;1.20;;;16.00;99.90;;;;;;4905517;29;20052;-82
2022/10/22 09:51:35;;;;;;;4.60;1.95;;;16.00;99.90;;;;;;4902930;29;20418;-82
2022/10/22 09:54:12;;;;;;;5.38;1.65;;;16.10;99.90;;;;;;4908717;29;20062;-83
2022/10/22 09:56:40;;;;;;;5.07;1.52;;;16.20;99.90;;;;;;4913327;29;20058;-82
2022/10/22 09:59:15;;;;;;;4.07;1.30;;;16.20;99.90;;;;;;4905193;29;20053;-83
2022/10/22 10:01:43;;;;;;;3.42;1.20;;;16.30;99.90;;;;;;4900489;29;20055;-83
2022/10/22 10:04:13;;;;;;;2.15;1.10;;;16.40;99.90;;;;;;4916239;29;20052;-84
2022/10/22 10:06:42;;;;;;;4.75;0.98;;;16.60;99.90;;;;;;4913108;29;20087;-81
2022/10/22 10:09:16;;;;;;;2.42;1.17;;;16.70;99.90;;;;;;4902401;29;20053;-82
2022/10/22 10:11:57;;;;;;;7.75;2.03;;;16.90;99.90;;;;;;4915391;29;20051;-83
2022/10/22 10:14:36;;;;;;;2.05;1.27;;;16.80;99.90;;;;;;4907437;29;20048;-82
2022/10/22 10:17:14;;;;;;;3.15;1.20;;;16.90;99.90;;;;;;4910245;29;20058;-84
2022/10/22 10:20:02;;;;;;;4.90;1.20;;;16.80;99.90;;;;;;4906652;29;20063;-81
2022/10/22 10:22:48;;;;;;;6.65;1.40;;;16.90;99.90;;;;;;4913204;29;20087;-83
2022/10/22 10:25:48;;;;;;;3.25;1.60;;;16.90;99.90;;;;;;4913139;29;20059;-80
2022/10/22 10:28:48;;;;;;;2.97;1.33;;;16.90;99.90;;;;;;4912878;29;20052;-81
2022/10/22 10:31:18;;;;;;;;;;;17.00;99.90;;;;;;4883354;29;20059;-83
2022/10/22 10:33:56;;;;;;;3.75;1.08;;;17.00;99.90;;;;;;4912957;29;20010;-81
2022/10/22 10:36:39;;;;;;;4.35;0.90;;;17.00;99.90;;;;;;4905969;29;20092;-83
2022/10/22 10:39:17;;;;;;;3.75;1.10;;;17.10;99.90;;;;;;4916477;29;20047;-81
2022/10/22 10:41:59;;;;;;;6.55;1.80;;;17.10;99.90;;;;;;4913879;29;20532;-83
2022/10/22 10:44:36;;;;;;;5.35;1.48;;;17.20;99.90;;;;;;4907174;29;20072;-85
2022/10/22 10:47:02;;;;;;;5.32;1.23;;;17.20;99.90;;;;;;4904848;29;20062;-81
2022/10/22 10:49:33;;;;;;;4.00;1.42;;;17.30;99.90;;;;;;4915329;29;20053;-81
2022/10/22 10:52:24;;;;;;;3.97;1.30;;;17.30;99.90;;;;;;4911094;29;20062;-82
2022/10/22 10:54:59;;;;;;;9.60;1.73;;;17.40;99.90;;;;;;4908624;29;20053;-83
2022/10/22 10:57:54;;;;;;;4.03;1.70;;;17.50;99.90;;;;;;4916619;29;20079;-82
2022/10/22 11:00:21;;;;;;;3.45;1.40;;;17.50;99.90;;;;;;4913416;29;20084;-80
2022/10/22 11:03:06;;;;;;;2.17;1.05;;;17.60;99.90;;;;;;4905350;29;20052;-82
2022/10/22 11:05:39;;;;;;;6.22;1.52;;;17.70;99.90;;;;;;4918610;29;20062;-82
2022/10/22 11:08:15;;;;;;;3.50;1.50;;;17.70;99.90;;;;;;4915190;29;20055;-82
2022/10/22 11:10:44;;;;;;;4.13;1.40;;;17.80;99.90;;;;;;4907806;29;20052;-84
2022/10/22 11:13:21;;;;;;;3.55;1.30;;;17.90;99.90;;;;;;4909702;29;20048;-82
2022/10/22 11:15:56;;;;;;;5.65;1.50;;;18.00;99.90;;;;;;4917916;29;20052;-85
2022/10/22 11:18:39;;;;;;;3.65;1.45;;;18.00;99.90;;;;;;4910263;29;20486;-82
2022/10/22 11:21:30;;;;;;;3.05;1.33;;;18.10;99.90;;;;;;4907654;29;20474;-85
2022/10/22 11:24:15;;;;;;;5.03;1.23;;;18.20;99.90;;;;;;4918664;29;20056;-83
2022/10/22 11:26:55;;;;;;;1.30;1.00;;;18.30;99.90;;;;;;4913078;29;20418;-82
2022/10/22 11:29:29;;;;;;;6.10;1.35;;;18.30;99.90;;;;;;4904615;29;20087;-80
2022/10/22 11:32:00;;;;;;;5.25;1.42;;;18.40;99.90;;;;;;4916003;29;20044;-84
2022/10/22 11:34:36;;;;;;;4.65;1.45;;;18.40;99.90;;;;;;4909100;29;20066;-84
2022/10/22 11:37:05;;;;;;;3.00;1.30;;;18.30;99.90;;;;;;4910047;29;20048;-84
2022/10/22 11:39:39;;;;;;;3.50;1.27;;;18.30;99.90;;;;;;4912800;29;20134;-83
2022/10/22 11:42:10;;;;;;;5.40;1.20;;;18.20;99.90;;;;;;4914840;29;20060;-82
2022/10/22 11:44:56;;;;;;;3.08;1.08;;;18.20;99.90;;;;;;4910512;29;20052;-85
2022/10/22 11:47:25;;;;;;;2.05;1.10;;;18.20;99.90;;;;;;4902971;29;20049;-82
2022/10/22 11:49:58;;;;;;;2.35;1.00;;;18.20;99.90;;;;;;4916982;29;20056;-85
2022/10/22 11:52:30;;;;;;;5.20;1.45;;;18.30;99.90;;;;;;4913517;29;20062;-83
2022/10/22 11:55:02;;;;;;;5.60;1.67;;;18.20;99.90;;;;;;4917512;29;20053;-82
2022/10/22 11:57:37;;;;;;;4.68;1.30;;;18.30;99.90;;;;;;4890368;29;20058;-84
2022/10/22 12:00:34;;;;;;;4.30;1.05;;;18.20;99.90;;;;;;4896790;29;20053;-82
2022/10/22 12:03:13;;;;;;;5.80;1.33;;;18.20;99.90;;;;;;4908633;29;20052;-82
2022/10/22 12:05:40;;;;;;;3.83;1.33;;;18.30;99.90;;;;;;4907085;29;20048;-83
2022/10/22 12:08:51;;;;;;;6.32;1.67;;;18.30;99.90;;;;;;4917758;29;20044;-84
2022/10/22 12:11:37;;;;;;;2.30;1.23;;;18.20;99.90;;;;;;4904303;29;20059;-83
2022/10/22 12:14:26;;;;;;;3.50;1.50;;;18.20;99.90;;;;;;4907224;29;20131;-84
2022/10/22 12:17:02;;;;;;;3.50;1.80;;;18.20;99.90;;;;;;4917335;29;20058;-83
2022/10/22 12:19:37;;;;;;;4.00;1.70;;;18.20;99.90;;;;;;4910096;29;20051;-84
2022/10/22 12:22:17;;;;;;;5.32;1.45;;;18.20;99.90;;;;;;4904168;29;20052;-82
2022/10/22 12:24:48;;;;;;;4.57;1.95;;;18.20;99.90;;;;;;4912905;29;20052;-84
2022/10/22 12:27:20;;;;;;;4.85;1.90;;;18.20;99.90;;;;;;4914350;29;20056;-82
2022/10/22 12:29:59;;;;;;;1.98;1.10;;;18.20;99.90;;;;;;4908733;29;20071;-84
2022/10/22 12:32:37;;;;;;;5.80;1.40;;;18.20;99.90;;;;;;4907439;29;20048;-81
2022/10/22 12:35:16;;;;;;;4.40;1.10;;;18.20;99.90;;;;;;4912216;29;20507;-82
2022/10/22 12:37:42;;;;;;;4.97;1.10;;;18.20;99.90;;;;;;4907211;29;20071;-81
2022/10/22 12:40:33;;;;;;;3.53;1.23;;;18.20;99.90;;;;;;4900991;29;20056;-83
2022/10/22 12:43:09;;;;;;;2.38;0.73;;;18.30;99.90;;;;;;4916750;29;20048;-81
2022/10/22 12:45:45;;;;;;;3.45;0.90;;;18.30;99.90;;;;;;4907155;29;20053;-81
2022/10/22 12:48:20;;;;;;;2.72;0.85;;;18.30;99.90;;;;;;4907231;29;20083;-82
2022/10/22 12:50:54;;;;;;;3.17;0.77;;;18.40;99.90;;;;;;4915835;29;20060;-83
2022/10/22 12:53:33;;;;;;;3.30;0.73;;;18.40;99.90;;;;;;4906583;29;20053;-80
2022/10/22 12:56:05;;;;;;;3.17;0.90;;;18.40;99.90;;;;;;4905310;29;20083;-81
2022/10/22 12:58:38;;;;;;;3.08;1.20;;;18.40;99.90;;;;;;4909306;29;20062;-83
2022/10/22 13:01:05;;;;;;;3.47;0.95;;;18.50;99.90;;;;;;4910032;29;20062;-83
2022/10/22 13:03:39;;;;;;;1.80;0.82;;;18.50;99.90;;;;;;4908608;29;20072;-83
2022/10/22 13:06:12;;;;;;;2.13;0.68;;;18.50;99.90;;;;;;4903746;29;20135;-84
2022/10/22 13:08:39;;;;;;;3.03;1.25;;;18.50;99.90;;;;;;4909701;29;20088;-83
2022/10/22 13:11:09;;;;;;;2.15;0.95;;;18.50;99.90;;;;;;4916299;29;20053;-83
2022/10/22 13:13:35;;;;;;;3.17;0.90;;;18.50;99.90;;;;;;4911463;29;20054;-82
2022/10/22 13:16:20;;;;;;;1.13;0.70;;;18.50;99.90;;;;;;4911471;29;20055;-83
2022/10/22 13:18:47;;;;;;;4.10;1.00;;;18.50;99.90;;;;;;4906904;29;20403;-84
2022/10/22 13:21:25;;;;;;;2.10;0.80;;;18.50;99.90;;;;;;4897742;29;20610;-83
2022/10/22 13:23:54;;;;;;;1.92;0.73;;;18.60;99.90;;;;;;4912826;29;20092;-82
2022/10/22 13:26:22;;;;;;;5.13;1.10;;;18.70;99.90;;;;;;4925041;29;20087;-84
2022/10/22 13:28:54;;;;;;;2.63;0.90;;;18.60;99.90;;;;;;4913259;29;20052;-82
2022/10/22 13:31:27;;;;;;;2.42;0.60;;;18.60;99.90;;;;;;4907037;29;20052;-82
2022/10/22 13:34:00;;;;;;;2.30;0.93;;;18.70;99.90;;;;;;4904404;29;20513;-80
2022/10/22 13:36:32;;;;;;;2.58;0.73;;;18.60;99.90;;;;;;4913205;29;20517;-82
2022/10/22 13:38:59;;;;;;;1.27;0.85;;;18.70;99.90;;;;;;4908682;29;20047;-81
2022/10/22 13:41:29;;;;;;;4.53;0.70;;;18.70;99.90;;;;;;4903279;29;20055;-84
2022/10/22 13:43:56;;;;;;;4.72;0.82;;;18.70;99.90;;;;;;4906407;29;20063;-84
2022/10/22 13:46:25;;;;;;;1.65;0.77;;;18.70;99.90;;;;;;4909874;29;20063;-82
2022/10/22 13:48:54;;;;;;;2.75;0.70;;;18.70;99.90;;;;;;4906475;29;20052;-84
2022/10/22 13:51:31;;;;;;;2.13;0.85;;;18.60;99.90;;;;;;4906122;29;20052;-81
2022/10/22 13:53:58;;;;;;;2.05;0.80;;;18.70;99.90;;;;;;4912019;29;20044;-81
2022/10/22 13:56:24;;;;;;;1.75;0.70;;;18.60;99.90;;;;;;4903162;29;20055;-83
2022/10/22 13:58:51;;;;;;;3.15;0.82;;;18.60;99.90;;;;;;4902986;29;20413;-82
2022/10/22 14:01:26;;;;;;;1.55;0.82;;;18.70;99.90;;;;;;4912939;29;20056;-82
2022/10/22 14:03:56;;;;;;;3.22;0.80;;;18.60;99.90;;;;;;4907214;29;20056;-83
2022/10/22 14:06:27;;;;;;;4.53;0.80;;;18.60;99.90;;;;;;4902938;29;20148;-81
2022/10/22 14:08:57;;;;;;;2.78;0.80;;;18.60;99.90;;;;;;4906734;29;20083;-83
2022/10/22 14:11:30;;;;;;;3.50;0.80;;;18.60;99.90;;;;;;4915078;29;20450;-80
2022/10/22 14:13:56;;;;;;;2.55;0.68;;;18.70;99.90;;;;;;4907602;29;20055;-83
2022/10/22 14:16:27;;;;;;;5.00;0.82;;;18.60;99.90;;;;;;4904956;29;20104;-81
2022/10/22 14:18:54;;;;;;;3.50;0.70;;;18.60;99.90;;;;;;4914019;29;20066;-82
2022/10/22 14:21:21;;;;;;;4.22;0.90;;;18.50;99.90;;;;;;4909053;29;20066;-84
2022/10/22 14:23:50;;;;;;;2.78;1.00;;;18.50;99.90;;;;;;4906846;29;20059;-84
2022/10/22 14:26:29;;;;;;;5.50;1.38;;;18.50;99.90;;;;;;4900631;29;20053;-82
2022/10/22 14:28:55;;;;;;;8.75;1.90;;;18.50;99.90;;;;;;4914009;29;20517;-81
2022/10/22 14:31:42;;;;;;;3.45;1.30;;;18.50;99.90;;;;;;4904043;29;20112;-82
2022/10/22 14:34:12;;;;;;;6.32;1.85;;;18.50;99.90;;;;;;4896502;29;20085;-84
2022/10/22 14:36:42;;;;;;;3.90;1.95;;;18.50;99.90;;;;;;4909956;29;20055;-81
2022/10/22 14:39:09;;;;;;;5.20;2.22;;;18.50;99.90;;;;;;4907265;29;20060;-81
2022/10/22 14:41:36;;;;;;;6.93;2.25;;;18.50;99.90;;;;;;4905469;29;20052;-81
2022/10/22 14:44:03;;;;;;;12.38;1.70;;;18.50;99.90;;;;;;4901907;29;20064;-82
2022/10/22 14:46:30;;;;;;;2.42;1.10;;;18.50;99.90;;;;;;4909541;29;20062;-81
2022/10/22 14:48:56;;;;;;;2.25;0.93;;;18.50;99.90;;;;;;4896283;29;20075;-81
2022/10/22 14:51:23;;;;;;;5.50;1.35;;;18.50;99.90;;;;;;4902955;29;20059;-83
2022/10/22 14:53:50;;;;;;;2.80;1.15;;;18.40;99.90;;;;;;4911717;29;20048;-82
2022/10/22 14:56:21;;;;;;;3.22;1.13;;;18.40;99.90;;;;;;4910510;29;20048;-81
2022/10/22 14:58:48;;;;;;;2.28;1.10;;;18.40;99.90;;;;;;4906572;29;20099;-79
2022/10/22 15:01:15;;;;;;;2.35;0.95;;;18.40;99.90;;;;;;4897036;29;20434;-81
2022/10/22 15:03:42;;;;;;;6.22;1.30;;;18.40;99.90;;;;;;4912862;29;20048;-81
2022/10/22 15:06:09;;;;;;;2.97;1.17;;;18.40;99.90;;;;;;4911802;29;20070;-81
2022/10/22 15:08:36;;;;;;;4.38;1.27;;;18.40;99.90;;;;;;4907385;29;20057;-83
2022/10/22 15:11:06;;;;;;;2.45;0.90;;;18.40;99.90;;;;;;4904997;29;20044;-80
2022/10/22 15:13:34;;;;;;;3.42;1.58;;;18.40;99.90;;;;;;4915844;29;20052;-81
2022/10/22 15:16:05;;;;;;;2.92;1.02;;;18.30;99.90;;;;;;4910510;29;20441;-82
2022/10/22 15:18:31;;;;;;;4.82;1.10;;;18.30;99.90;;;;;;4903084;29;20514;-80
2022/10/22 15:21:01;;;;;;;2.60;1.10;;;18.30;99.90;;;;;;4911609;29;20060;-81
2022/10/22 15:23:28;;;;;;;5.05;1.30;;;18.30;99.90;;;;;;4909953;29;20410;-80
2022/10/22 15:25:55;;;;;;;3.55;0.70;;;18.30;99.90;;;;;;4907521;29;20273;-81
2022/10/22 15:28:23;;;;;;;5.80;0.60;;;18.20;99.90;;;;;;4909983;29;20522;-82
2022/10/22 15:30:55;;;;;;;0.73;0.60;;;18.20;99.90;;;;;;4915976;29;20056;-80
2022/10/22 15:33:22;;;;;;;2.97;0.60;;;18.10;99.90;;;;;;4909254;29;20056;-83
2022/10/22 15:35:48;;;;;;;4.88;0.65;;;18.10;99.90;;;;;;4906637;29;20055;-82
2022/10/22 15:38:15;;;;;;;2.53;0.70;;;18.10;99.90;;;;;;4910730;29;20044;-84
2022/10/22 15:40:42;;;;;;;7.57;0.70;;;18.00;99.90;;;;;;4910966;29;20368;-82
2022/10/22 15:43:09;;;;;;;3.72;0.57;;;18.00;99.90;;;;;;4914902;29;20048;-82
2022/10/22 15:45:36;;;;;;;4.05;0.88;;;17.90;99.90;;;;;;4909067;29;20059;-82
2022/10/22 15:48:03;;;;;;;0.93;0.65;;;17.90;99.90;;;;;;4915779;29;20394;-81
2022/10/22 15:50:31;;;;;;;6.30;1.05;;;17.90;99.90;;;;;;4911038;29;20053;-82
2022/10/22 15:52:57;;;;;;;5.75;1.13;;;17.80;99.90;;;;;;4905957;29;20050;-80
2022/10/22 15:55:24;;;;;;;4.60;1.25;;;17.80;99.90;;;;;;4909846;29;20062;-80
2022/10/22 15:57:54;;;;;;;7.13;1.20;;;17.70;99.90;;;;;;4915202;29;20054;-82
2022/10/22 16:00:23;;;;;;;4.65;1.55;;;17.70;99.90;;;;;;4907472;29;20052;-83
2022/10/22 16:02:52;;;;;;;4.18;2.05;;;17.60;99.90;;;;;;4902325;29;20488;-82
2022/10/22 16:05:19;;;;;;;6.50;1.67;;;17.50;99.90;;;;;;4916395;29;20082;-81
2022/10/22 16:07:46;;;;;;;14.65;2.92;;;17.50;99.90;;;;;;4913407;29;20139;-81
2022/10/22 16:10:13;;;;;;;6.82;1.70;;;17.40;99.90;;;;;;4905871;29;20055;-81
2022/10/22 16:12:40;;;;;;;3.72;1.50;;;17.30;99.90;;;;;;4908750;29;20153;-83
2022/10/22 16:15:08;;;;;;;2.65;1.30;;;17.20;99.90;;;;;;4912686;29;20459;-80
2022/10/22 16:17:35;;;;;;;4.93;1.20;;;17.20;99.90;;;;;;4909694;29;20064;-81
2022/10/22 16:20:02;;;;;;;6.90;1.08;;;17.10;99.90;;;;;;4904431;29;20138;-80
2022/10/22 16:22:28;;;;;;;3.17;1.25;;;17.10;99.90;;;;;;4910340;29;20146;-81
2022/10/22 16:24:55;;;;;;;2.65;1.00;;;17.00;99.90;;;;;;4906336;29;20058;-82
2022/10/22 16:27:22;;;;;;;4.32;0.80;;;17.00;99.90;;;;;;4903162;29;20057;-78
2022/10/22 16:29:48;;;;;;;2.25;0.82;;;16.90;99.90;;;;;;4906469;29;20052;-81
2022/10/22 16:32:15;;;;;;;5.22;1.10;;;16.90;99.90;;;;;;4911097;29;20056;-80
2022/10/22 16:34:42;;;;;;;4.28;0.77;;;16.80;99.90;;;;;;4911402;29;20049;-81
2022/10/22 16:37:09;;;;;;;4.32;1.40;;;16.80;99.90;;;;;;4905657;29;20506;-81
2022/10/22 16:39:36;;;;;;;2.22;0.88;;;16.70;99.90;;;;;;4910079;29;20044;-81